createdAt,value
2019-03-26T00:02:11.261Z,7.20
2019-03-26T00:04:41.927Z,7.20
2019-03-26T00:07:11.767Z,7.20
2019-03-26T00:09:41.591Z,7.20
2019-03-26T00:12:11.453Z,7.20
2019-03-26T00:14:41.756Z,7.20
2019-03-26T00:17:11.549Z,7.20
2019-03-26T00:19:41.390Z,7.20
2019-03-26T00:22:11.503Z,7.20
2019-03-26T00:24:41.673Z,7.20
2019-03-26T00:27:11.492Z,7.10
2019-03-26T00:29:41.383Z,7.20
2019-03-26T00:32:11.249Z,7.20
2019-03-26T00:34:42.556Z,7.10
2019-03-26T00:37:12.856Z,7.10
2019-03-26T00:39:42.763Z,7.10
2019-03-26T00:42:12.598Z,7.20
2019-03-26T00:44:42.825Z,7.20
2019-03-26T00:47:13.014Z,7.10
2019-03-26T00:49:44.108Z,7.20
2019-03-26T00:52:14.188Z,7.20
2019-03-26T00:54:44.109Z,7.10
2019-03-26T00:57:13.916Z,7.10
2019-03-26T00:59:43.755Z,7.10
2019-03-26T01:02:13.874Z,7.10
2019-03-26T01:04:43.765Z,7.10
2019-03-26T01:07:13.666Z,7.00
2019-03-26T01:09:43.487Z,7.10
2019-03-26T01:12:13.576Z,7.00
2019-03-26T01:14:43.432Z,6.90
2019-03-26T01:17:13.248Z,7.00
2019-03-26T01:19:43.355Z,6.90
2019-03-26T01:22:14.093Z,7.00
2019-03-26T01:24:44.324Z,6.90
2019-03-26T01:27:14.435Z,6.90
2019-03-26T01:29:44.975Z,7.00
2019-03-26T01:32:14.900Z,6.90
2019-03-26T01:34:46.288Z,6.90
2019-03-26T01:37:16.320Z,6.90
2019-03-26T01:39:46.158Z,6.90
2019-03-26T01:42:16.220Z,6.90
2019-03-26T01:44:46.077Z,6.90
2019-03-26T01:47:15.911Z,6.90
2019-03-26T01:49:45.884Z,6.90
2019-03-26T01:52:16.047Z,6.90
2019-03-26T01:54:45.875Z,6.90
2019-03-26T01:57:16.597Z,6.90
2019-03-26T01:59:46.451Z,6.90
2019-03-26T02:02:16.684Z,6.90
2019-03-26T02:04:58.856Z,6.90
2019-03-26T02:07:18.485Z,6.90
2019-03-26T02:09:48.596Z,6.90
2019-03-26T02:12:18.519Z,6.90
2019-03-26T02:14:48.375Z,7.00
2019-03-26T02:17:18.493Z,6.90
2019-03-26T02:19:48.437Z,6.90
2019-03-26T02:22:18.568Z,6.90
2019-03-26T02:24:48.371Z,6.90
2019-03-26T02:27:19.136Z,6.90
2019-03-26T02:29:48.959Z,6.90
2019-03-26T02:32:19.496Z,6.90
2019-03-26T02:34:49.413Z,6.90
2019-03-26T02:37:19.299Z,6.90
2019-03-26T02:39:49.180Z,6.80
2019-03-26T02:42:19.129Z,6.80
2019-03-26T02:44:49.008Z,6.80
2019-03-26T02:47:18.832Z,6.80
2019-03-26T02:49:48.660Z,6.80
2019-03-26T02:52:18.828Z,6.80
2019-03-26T02:54:48.673Z,6.80
2019-03-26T02:57:18.604Z,6.80
2019-03-26T02:59:48.427Z,6.80
2019-03-26T03:02:18.356Z,6.80
2019-03-26T03:04:48.207Z,6.80
2019-03-26T03:07:18.404Z,6.80
2019-03-26T03:09:48.251Z,6.80
2019-03-26T03:12:18.097Z,6.80
2019-03-26T03:14:48.450Z,6.80
2019-03-26T03:17:18.588Z,6.80
2019-03-26T03:19:48.727Z,6.80
2019-03-26T03:22:18.527Z,6.80
2019-03-26T03:24:48.389Z,6.80
2019-03-26T03:27:19.015Z,6.80
2019-03-26T03:29:48.941Z,6.90
2019-03-26T03:32:18.797Z,6.90
2019-03-26T03:34:48.717Z,6.90
2019-03-26T03:37:18.639Z,6.90
2019-03-26T03:39:48.518Z,6.80
2019-03-26T03:42:18.371Z,6.80
2019-03-26T03:44:48.662Z,6.80
2019-03-26T03:47:20.947Z,6.90
2019-03-26T03:49:51.546Z,6.90
2019-03-26T03:52:22.509Z,6.80
2019-03-26T03:54:52.795Z,6.90
2019-03-26T03:57:24.488Z,6.90
2019-03-26T03:59:56.567Z,6.80
2019-03-26T04:02:26.391Z,6.80
2019-03-26T04:04:56.203Z,6.90
2019-03-26T04:07:26.301Z,6.90
2019-03-26T04:09:56.626Z,6.90
2019-03-26T04:12:26.578Z,6.90
2019-03-26T04:14:56.435Z,6.90
2019-03-26T04:17:26.259Z,6.90
2019-03-26T04:19:59.478Z,6.90
2019-03-26T04:22:29.868Z,6.90
2019-03-26T04:25:02.825Z,6.80
2019-03-26T04:27:32.913Z,6.80
2019-03-26T04:30:03.389Z,6.80
2019-03-26T04:32:33.503Z,6.80
2019-03-26T04:35:03.428Z,6.80
2019-03-26T04:37:33.344Z,6.80
2019-03-26T04:40:03.597Z,6.80
2019-03-26T04:42:33.412Z,6.80
2019-03-26T04:45:03.266Z,6.80
2019-03-26T04:47:33.342Z,6.80
2019-03-26T04:50:03.176Z,6.80
2019-03-26T04:52:33.320Z,6.80
2019-03-26T04:55:03.280Z,6.80
2019-03-26T04:57:33.084Z,6.80
2019-03-26T05:00:03.026Z,6.80
2019-03-26T05:02:32.884Z,6.80
2019-03-26T05:05:02.734Z,6.80
2019-03-26T05:07:32.624Z,6.80
2019-03-26T05:10:02.757Z,6.90
2019-03-26T05:12:33.853Z,6.80
2019-03-26T05:15:04.499Z,6.80
2019-03-26T05:17:34.341Z,6.80
2019-03-26T05:20:04.519Z,6.80
2019-03-26T05:22:34.718Z,6.80
2019-03-26T05:25:05.723Z,6.70
2019-03-26T05:27:45.452Z,6.70
2019-03-26T05:30:09.463Z,6.80
2019-03-26T05:32:39.440Z,6.80
2019-03-26T05:35:09.675Z,6.80
2019-03-26T05:37:39.497Z,6.80
2019-03-26T05:40:13.481Z,6.80
2019-03-26T05:42:43.183Z,6.80
2019-03-26T05:45:13.064Z,6.80
2019-03-26T05:47:43.052Z,6.80
2019-03-26T05:50:12.999Z,6.80
2019-03-26T05:52:42.843Z,6.80
2019-03-26T05:55:12.786Z,6.90
2019-03-26T05:57:42.656Z,6.90
2019-03-26T06:00:18.323Z,6.90
2019-03-26T06:02:48.151Z,6.90
2019-03-26T06:05:18.222Z,6.90
2019-03-26T06:07:48.436Z,7.00
2019-03-26T06:10:18.535Z,7.00
2019-03-26T06:12:50.378Z,7.00
2019-03-26T06:15:20.412Z,7.00
2019-03-26T06:17:50.305Z,7.00
2019-03-26T06:20:20.161Z,7.00
2019-03-26T06:22:50.080Z,7.00
2019-03-26T06:25:19.879Z,7.00
2019-03-26T06:27:49.688Z,7.00
2019-03-26T06:30:19.555Z,7.00
2019-03-26T06:32:49.372Z,7.00
2019-03-26T06:35:19.378Z,7.00
2019-03-26T06:37:49.491Z,7.00
2019-03-26T06:40:19.404Z,7.10
2019-03-26T06:42:49.247Z,7.20
2019-03-26T06:45:19.464Z,7.30
2019-03-26T06:47:49.629Z,7.30
2019-03-26T06:50:19.470Z,7.30
2019-03-26T06:52:49.357Z,7.30
2019-03-26T06:55:19.183Z,7.30
2019-03-26T06:57:48.985Z,7.30
2019-03-26T07:00:27.652Z,7.40
2019-03-26T07:02:57.580Z,7.50
2019-03-26T07:05:27.442Z,7.50
2019-03-26T07:07:57.647Z,7.50
2019-03-26T07:10:28.879Z,7.50
2019-03-26T07:12:59.141Z,7.60
2019-03-26T07:15:29.039Z,7.60
2019-03-26T07:17:58.856Z,7.70
2019-03-26T07:20:28.688Z,7.80
2019-03-26T07:22:59.118Z,7.80
2019-03-26T07:25:29.228Z,7.80
2019-03-26T07:27:59.161Z,7.90
2019-03-26T07:30:45.762Z,7.90
2019-03-26T07:33:15.855Z,7.80
2019-03-26T07:35:45.689Z,7.90
2019-03-26T07:38:15.601Z,7.90
2019-03-26T07:40:45.944Z,7.80
2019-03-26T07:43:15.808Z,7.80
2019-03-26T07:45:45.645Z,7.80
2019-03-26T07:48:15.561Z,7.80
2019-03-26T07:50:45.399Z,7.90
2019-03-26T07:53:15.408Z,8.00
2019-03-26T07:55:46.950Z,8.00
2019-03-26T07:58:16.782Z,8.00
2019-03-26T08:00:46.879Z,8.00
2019-03-26T08:03:17.023Z,8.00
2019-03-26T08:05:47.118Z,8.00
2019-03-26T08:08:17.032Z,8.20
2019-03-26T08:10:47.174Z,8.30
2019-03-26T08:13:17.266Z,8.50
2019-03-26T08:15:48.374Z,8.60
2019-03-26T08:18:18.620Z,8.60
2019-03-26T08:20:48.415Z,8.70
2019-03-26T08:23:18.273Z,8.70
2019-03-26T08:25:48.368Z,8.80
2019-03-26T08:28:18.313Z,8.80
2019-03-26T08:30:50.104Z,8.80
2019-03-26T08:33:20.079Z,8.80
2019-03-26T08:35:54.168Z,8.70
2019-03-26T08:38:24.427Z,8.90
2019-03-26T08:40:54.450Z,9.10
2019-03-26T08:43:24.597Z,9.40
2019-03-26T08:45:59.531Z,9.50
2019-03-26T08:48:34.828Z,9.60
2019-03-26T08:51:17.594Z,9.60
2019-03-26T08:53:48.556Z,9.60
2019-03-26T08:56:42.761Z,9.60
2019-03-26T08:59:19.244Z,9.70
2019-03-26T09:01:55.907Z,9.50
2019-03-26T09:04:30.249Z,9.60
2019-03-26T09:07:00.175Z,9.70
2019-03-26T09:09:30.256Z,9.90
2019-03-26T09:12:01.438Z,9.90
2019-03-26T09:14:32.411Z,9.90
2019-03-26T09:17:02.251Z,10.10
2019-03-26T09:19:32.094Z,10.30
2019-03-26T09:22:02.072Z,10.10
2019-03-26T09:24:31.909Z,9.90
2019-03-26T09:27:02.117Z,9.70
2019-03-26T09:29:32.406Z,9.50
2019-03-26T09:32:02.669Z,9.50
2019-03-26T09:34:32.952Z,9.30
2019-03-26T09:37:03.178Z,9.30
2019-03-26T09:39:33.435Z,9.30
2019-03-26T09:42:04.188Z,9.40
2019-03-26T09:44:34.888Z,9.40
2019-03-26T09:47:15.484Z,9.50
2019-03-26T09:49:37.104Z,9.80
2019-03-26T09:52:07.251Z,10.00
2019-03-26T09:54:38.299Z,10.30
2019-03-26T09:57:40.065Z,10.50
2019-03-26T10:03:57.532Z,10.50
2019-03-26T10:06:31.854Z,10.50
2019-03-26T10:12:59.227Z,9.80
2019-03-26T10:15:20.710Z,10.00
2019-03-26T10:17:50.804Z,10.20
2019-03-26T10:20:34.391Z,10.20
2019-03-26T10:23:04.995Z,10.10
2019-03-26T10:25:37.753Z,10.10
2019-03-26T10:28:07.948Z,9.90
2019-03-26T10:30:39.519Z,9.80
2019-03-26T10:33:10.523Z,9.70
2019-03-26T10:35:40.349Z,9.80
2019-03-26T10:38:10.267Z,9.90
2019-03-26T10:40:40.591Z,10.10
2019-03-26T10:43:10.737Z,10.30
2019-03-26T10:45:40.578Z,10.30
2019-03-26T10:48:12.661Z,10.40
2019-03-26T10:50:42.762Z,10.30
2019-03-26T10:53:53.756Z,10.30
2019-03-26T10:56:42.057Z,10.30
2019-03-26T11:00:32.268Z,10.10
2019-03-26T11:08:14.852Z,9.80
2019-03-26T11:10:12.344Z,9.80
2019-03-26T11:12:42.223Z,10.00
2019-03-26T11:22:27.716Z,10.30
2019-03-26T11:28:32.791Z,10.70
2019-03-26T11:31:02.959Z,10.30
2019-03-26T11:33:32.759Z,10.20
2019-03-26T11:36:02.889Z,9.90
2019-03-26T11:38:32.732Z,9.80
2019-03-26T11:41:02.594Z,9.90
2019-03-26T11:43:32.399Z,9.90
2019-03-26T11:46:02.503Z,9.70
2019-03-26T11:48:32.658Z,9.60
2019-03-26T11:51:02.486Z,9.70
2019-03-26T11:53:32.610Z,9.80
2019-03-26T11:56:02.459Z,10.10
2019-03-26T11:58:32.278Z,10.40
2019-03-26T12:01:02.425Z,10.50
2019-03-26T12:03:32.218Z,10.60
2019-03-26T12:06:02.031Z,10.60
2019-03-26T12:08:32.206Z,10.60
2019-03-26T12:11:02.042Z,10.40
2019-03-26T12:13:34.168Z,10.40
2019-03-26T12:16:04.152Z,10.20
2019-03-26T12:18:34.070Z,9.90
2019-03-26T12:21:03.943Z,9.90
2019-03-26T12:23:33.760Z,10.00
2019-03-26T12:26:03.753Z,9.90
2019-03-26T12:28:33.683Z,10.00
2019-03-26T12:31:03.814Z,10.00
2019-03-26T12:33:33.880Z,9.90
2019-03-26T12:36:04.306Z,9.80
2019-03-26T12:38:34.093Z,10.00
2019-03-26T12:41:03.927Z,10.20
2019-03-26T12:43:33.868Z,10.50
2019-03-26T12:46:06.099Z,10.70
2019-03-26T12:48:36.293Z,11.00
2019-03-26T12:51:06.483Z,11.30
2019-03-26T12:53:36.289Z,11.50
2019-03-26T12:56:06.190Z,11.80
2019-03-26T12:58:36.612Z,11.60
2019-03-26T13:01:06.772Z,11.30
2019-03-26T13:03:36.579Z,11.20
2019-03-26T13:06:06.451Z,11.00
2019-03-26T13:08:36.703Z,10.50
2019-03-26T13:11:06.851Z,10.30
2019-03-26T13:13:36.720Z,10.30
2019-03-26T13:16:06.820Z,10.30
2019-03-26T13:18:36.703Z,10.40
2019-03-26T13:21:07.492Z,10.20
2019-03-26T13:23:37.301Z,10.10
2019-03-26T13:26:07.103Z,10.10
2019-03-26T13:28:37.035Z,9.90
2019-03-26T13:31:06.822Z,9.80
2019-03-26T13:33:36.900Z,9.90
2019-03-26T13:36:06.963Z,9.80
2019-03-26T13:38:36.787Z,9.90
2019-03-26T13:41:06.661Z,9.90
2019-03-26T13:43:36.565Z,9.80
2019-03-26T13:46:06.367Z,9.80
2019-03-26T13:48:38.784Z,9.80
2019-03-26T13:51:08.693Z,10.00
2019-03-26T13:53:38.551Z,10.10
2019-03-26T13:56:08.971Z,10.30
2019-03-26T13:58:38.822Z,10.50
2019-03-26T14:01:08.655Z,10.70
2019-03-26T14:03:38.902Z,10.90
2019-03-26T14:06:08.742Z,11.00
2019-03-26T14:08:38.990Z,11.00
2019-03-26T14:11:09.132Z,11.00
2019-03-26T14:13:39.077Z,10.80
2019-03-26T14:16:09.007Z,10.60
2019-03-26T14:18:39.185Z,10.40
2019-03-26T14:21:09.396Z,10.30
2019-03-26T14:23:39.535Z,10.30
2019-03-26T14:26:09.696Z,10.20
2019-03-26T14:28:39.558Z,10.10
2019-03-26T14:31:09.661Z,10.30
2019-03-26T14:33:39.577Z,10.50
2019-03-26T14:36:09.406Z,10.60
2019-03-26T14:38:39.204Z,10.70
2019-03-26T14:41:09.153Z,10.60
2019-03-26T14:43:39.253Z,10.50
2019-03-26T14:46:09.212Z,10.60
2019-03-26T14:48:39.072Z,10.50
2019-03-26T14:51:08.904Z,10.40
2019-03-26T14:53:38.736Z,10.40
2019-03-26T14:56:08.566Z,10.30
2019-03-26T14:58:38.415Z,10.20
2019-03-26T15:01:08.267Z,10.20
2019-03-26T15:03:38.206Z,10.10
2019-03-26T15:06:08.022Z,10.00
2019-03-26T15:08:37.858Z,10.00
2019-03-26T15:11:08.586Z,10.00
2019-03-26T15:13:38.533Z,10.10
2019-03-26T15:16:08.676Z,10.30
2019-03-26T15:18:38.574Z,10.30
2019-03-26T15:21:08.709Z,10.30
2019-03-26T15:23:38.611Z,10.20
2019-03-26T15:26:08.739Z,10.20
2019-03-26T15:28:38.550Z,10.30
2019-03-26T15:31:08.677Z,10.10
2019-03-26T15:33:38.501Z,10.10
2019-03-26T15:36:08.392Z,10.10
2019-03-26T15:38:38.567Z,10.20
2019-03-26T15:41:20.761Z,10.20
2019-03-26T15:43:40.264Z,10.30
2019-03-26T15:46:10.123Z,10.30
2019-03-26T15:48:40.306Z,10.30
2019-03-26T15:51:10.146Z,10.30
2019-03-26T15:53:40.467Z,10.20
2019-03-26T15:56:10.279Z,10.20
2019-03-26T15:58:40.131Z,10.20
2019-03-26T16:01:10.234Z,10.20
2019-03-26T16:03:40.361Z,10.20
2019-03-26T16:06:10.491Z,10.20
2019-03-26T16:08:40.586Z,10.20
2019-03-26T16:11:10.415Z,10.20
2019-03-26T16:13:40.628Z,10.10
2019-03-26T16:16:10.858Z,10.10
2019-03-26T16:18:40.707Z,10.10
2019-03-26T16:21:10.760Z,10.10
2019-03-26T16:23:40.880Z,10.00
2019-03-26T16:26:10.743Z,10.00
2019-03-26T16:28:40.591Z,10.00
2019-03-26T16:31:10.472Z,10.00
2019-03-26T16:33:40.275Z,10.00
2019-03-26T16:36:10.136Z,10.00
2019-03-26T16:38:40.251Z,9.90
2019-03-26T16:41:10.084Z,9.80
2019-03-26T16:43:40.155Z,9.80
2019-03-26T16:46:09.988Z,9.70
2019-03-26T16:48:39.840Z,9.70
2019-03-26T16:51:09.742Z,9.60
2019-03-26T16:53:39.552Z,9.60
2019-03-26T16:56:11.123Z,9.70
2019-03-26T16:58:41.287Z,9.70
2019-03-26T17:01:11.153Z,9.70
2019-03-26T17:03:41.052Z,9.60
2019-03-26T17:06:10.981Z,9.60
2019-03-26T17:08:41.176Z,9.60
2019-03-26T17:11:11.313Z,9.60
2019-03-26T17:13:41.195Z,9.60
2019-03-26T17:16:11.295Z,9.70
2019-03-26T17:18:41.314Z,9.70
2019-03-26T17:21:11.124Z,9.80
2019-03-26T17:23:41.254Z,9.70
2019-03-26T17:26:11.085Z,9.70
2019-03-26T17:28:40.927Z,9.70
2019-03-26T17:31:10.827Z,9.70
2019-03-26T17:33:40.649Z,9.70
2019-03-26T17:36:15.541Z,9.70
2019-03-26T17:38:45.678Z,9.70
2019-03-26T17:41:15.483Z,9.70
2019-03-26T17:43:45.288Z,9.60
2019-03-26T17:46:15.133Z,9.60
2019-03-26T17:48:44.935Z,9.60
2019-03-26T17:51:14.767Z,9.60
2019-03-26T17:53:44.606Z,9.50
2019-03-26T17:56:14.604Z,9.50
2019-03-26T17:58:44.759Z,9.50
2019-03-26T18:01:14.626Z,9.50
2019-03-26T18:03:44.547Z,9.50
2019-03-26T18:06:14.395Z,9.50
2019-03-26T18:08:44.623Z,9.50
2019-03-26T18:11:14.574Z,9.50
2019-03-26T18:13:44.659Z,9.50
2019-03-26T18:16:14.909Z,9.60
2019-03-26T18:18:45.116Z,9.50
2019-03-26T18:21:15.216Z,9.60
2019-03-26T18:23:45.305Z,9.50
2019-03-26T18:26:15.108Z,9.60
2019-03-26T18:28:45.182Z,9.50
2019-03-26T18:31:15.057Z,9.60
2019-03-26T18:33:44.972Z,9.60
2019-03-26T18:36:14.811Z,9.50
2019-03-26T18:38:44.651Z,9.60
2019-03-26T18:41:14.502Z,9.60
2019-03-26T18:43:44.308Z,9.60
2019-03-26T18:46:14.411Z,9.60
2019-03-26T18:48:44.503Z,9.60
2019-03-26T18:51:14.372Z,9.60
2019-03-26T18:53:44.451Z,9.60
2019-03-26T18:56:15.216Z,9.60
2019-03-26T18:58:45.975Z,9.60
2019-03-26T19:01:16.063Z,9.60
2019-03-26T19:03:45.877Z,9.60
2019-03-26T19:06:16.953Z,9.60
2019-03-26T19:08:47.091Z,9.60
2019-03-26T19:11:16.927Z,9.60
2019-03-26T19:13:47.064Z,9.50
2019-03-26T19:16:17.775Z,9.50
2019-03-26T19:18:47.987Z,9.60
2019-03-26T19:21:17.781Z,9.60
2019-03-26T19:23:48.616Z,9.60
2019-03-26T19:26:18.797Z,9.50
2019-03-26T19:28:48.859Z,9.60
2019-03-26T19:31:18.693Z,9.50
2019-03-26T19:33:48.517Z,9.50
2019-03-26T19:36:18.380Z,9.60
2019-03-26T19:38:48.192Z,9.50
2019-03-26T19:41:18.340Z,9.60
2019-03-26T19:43:48.246Z,9.60
2019-03-26T19:46:18.118Z,9.50
2019-03-26T19:48:48.595Z,9.50
2019-03-26T19:51:18.431Z,9.50
2019-03-26T19:53:48.272Z,9.50
2019-03-26T19:56:18.393Z,9.50
2019-03-26T19:58:48.299Z,9.40
2019-03-26T20:01:18.391Z,9.40
2019-03-26T20:03:48.236Z,9.50
2019-03-26T20:06:18.080Z,9.50
2019-03-26T20:08:47.882Z,9.50
2019-03-26T20:11:17.703Z,9.50
2019-03-26T20:13:47.527Z,9.50
2019-03-26T20:16:17.466Z,9.50
2019-03-26T20:18:47.283Z,9.50
2019-03-26T20:21:17.104Z,9.50
2019-03-26T20:23:46.940Z,9.40
2019-03-26T20:26:17.052Z,9.40
2019-03-26T20:28:47.027Z,9.40
2019-03-26T20:31:17.111Z,9.40
2019-03-26T20:33:46.931Z,9.30
2019-03-26T20:36:17.170Z,9.30
2019-03-26T20:38:47.183Z,9.30
2019-03-26T20:41:16.995Z,9.30
2019-03-26T20:43:46.836Z,9.30
2019-03-26T20:46:16.649Z,9.30
2019-03-26T20:48:46.605Z,9.20
2019-03-26T20:51:16.428Z,9.20
2019-03-26T20:53:46.279Z,9.20
2019-03-26T20:56:17.482Z,9.20
2019-03-26T20:58:47.715Z,9.20
2019-03-26T21:01:17.861Z,9.20
2019-03-26T21:03:47.966Z,9.20
2019-03-26T21:06:18.252Z,9.10
2019-03-26T21:08:48.113Z,9.20
2019-03-26T21:11:17.955Z,9.20
2019-03-26T21:13:50.845Z,9.20
2019-03-26T21:16:20.326Z,9.20
2019-03-26T21:18:50.146Z,9.20
2019-03-26T21:21:19.950Z,9.20
2019-03-26T21:23:49.772Z,9.20
2019-03-26T21:26:21.075Z,9.20
2019-03-26T21:28:51.192Z,9.20
2019-03-26T21:31:21.076Z,9.20
2019-03-26T21:33:50.924Z,9.20
2019-03-26T21:36:21.240Z,9.10
2019-03-26T21:38:54.719Z,9.10
2019-03-26T21:41:29.114Z,9.10
2019-03-26T21:44:04.436Z,9.10
2019-03-26T21:46:31.048Z,9.10
2019-03-26T21:49:00.978Z,9.10
2019-03-26T21:51:32.046Z,9.20
2019-03-26T21:54:02.683Z,9.10
2019-03-26T21:56:33.367Z,9.20
2019-03-26T21:59:03.553Z,9.20
2019-03-26T22:01:33.646Z,9.20
2019-03-26T22:04:03.616Z,9.20
2019-03-26T22:06:33.770Z,9.20
2019-03-26T22:09:04.342Z,9.20
2019-03-26T22:11:34.270Z,9.20
2019-03-26T22:14:16.995Z,9.20
2019-03-26T22:16:35.872Z,9.20
2019-03-26T22:19:05.847Z,9.20
2019-03-26T22:21:36.619Z,9.20
2019-03-26T22:24:06.835Z,9.10
2019-03-26T22:26:45.209Z,9.10
2019-03-26T22:29:15.487Z,9.10
2019-03-26T22:32:17.281Z,9.10
2019-03-26T22:35:07.043Z,9.10
2019-03-26T22:37:37.311Z,9.10
2019-03-26T22:40:07.424Z,9.10
2019-03-26T22:42:39.433Z,9.00
2019-03-26T22:45:29.322Z,9.00
2019-03-26T22:47:59.749Z,9.00
2019-03-26T22:50:29.987Z,9.00
2019-03-26T22:53:00.243Z,9.00
2019-03-26T22:55:40.013Z,9.00
2019-03-26T22:58:14.254Z,9.00
2019-03-26T23:00:47.620Z,9.00
2019-03-26T23:03:17.616Z,9.00
2019-03-26T23:05:48.083Z,9.00
2019-03-26T23:08:20.008Z,8.90
2019-03-26T23:10:54.808Z,9.00
2019-03-26T23:13:24.923Z,8.90
2019-03-26T23:15:54.839Z,8.90
2019-03-26T23:18:24.896Z,8.90
2019-03-26T23:20:54.764Z,8.90
2019-03-26T23:23:24.898Z,8.90
2019-03-26T23:25:56.401Z,8.80
2019-03-26T23:28:32.705Z,8.80
2019-03-26T23:31:14.168Z,8.70
2019-03-26T23:34:12.235Z,8.70
2019-03-26T23:36:43.612Z,8.60
2019-03-26T23:39:13.737Z,8.60
2019-03-26T23:41:43.831Z,8.50
2019-03-26T23:44:25.314Z,8.50
2019-03-26T23:46:45.959Z,8.50
2019-03-26T23:49:15.935Z,8.50
2019-03-26T23:51:45.780Z,8.40
2019-03-26T23:54:16.231Z,8.40
2019-03-26T23:56:46.259Z,8.50
2019-03-26T23:59:19.295Z,8.40
